Impacts METAR Board INFO
IDs:

KCLT - Charlotte/Douglas In, NC, US

Updated at: 0350 UTC 19 Feb 2018
Potential Impact None Slight Moderate High
Time18/15Z 18/16Z 18/17Z 18/18Z 18/19Z 18/20Z 18/21Z 18/22Z 18/23Z 19/00Z 19/01Z 19/02Z 19/03Z
VIS10 10 10 10 10 10 10 10 10 10 10 10 10
CIG-- -- -- -- -- 250 -- 250 250 250 250 250 49
CoverFEWSCTSCTSCTSCTBKNSCTBKNBKNBKNBKNBKNBKN
FltCatVFRVFRVFRVFRVFRVFRVFRVFRVFRVFRVFRVFRVFR
WX--------------------------
WDir303030701100110120130100809090
WSpd10 10 8 7 5 4 5 9 8 5 4 6 7
WGst-- -- -- -- -- -- -- 15 -- -- -- -- --
Raw hourly METARs
KCLT 181452Z 03010KT 10SM FEW012 FEW250 11/06 A3032 RMK AO2 SLP268 T01060061 51035
KCLT 181552Z 03010KT 10SM FEW180 SCT250 13/04 A3034 RMK AO2 SLP274 T01330044
KCLT 181652Z 03008KT 10SM FEW065 FEW180 SCT250 15/03 A3035 RMK AO2 SLP277 T01500028
KCLT 181752Z 07007KT 10SM FEW065 SCT250 16/02 A3034 RMK AO2 SLP273 T01560022 10156 20056 50006
KCLT 181852Z 11005KT 10SM FEW070 FEW180 SCT250 16/02 A3031 RMK AO2 SLP263 T01610017
KCLT 181952Z VRB04KT 10SM FEW070 FEW200 BKN250 18/02 A3030 RMK AO2 SLP257 T01780017
KCLT 182052Z 11005KT 10SM FEW042 FEW065 SCT200 SCT250 17/01 A3030 RMK AO2 SLP258 T01720011 56015
KCLT 182152Z 12009G15KT 10SM FEW065 FEW200 BKN250 17/01 A3030 RMK AO2 SLP258 T01720011
KCLT 182252Z 13008KT 10SM FEW055 BKN250 16/03 A3032 RMK AO2 SLP264 T01610028
KCLT 182352Z 10005KT 10SM BKN250 16/03 A3033 RMK AO2 SLP270 T01610028 10183 20150 53012
KCLT 190052Z 08004KT 10SM BKN250 14/03 A3034 RMK AO2 SLP273 T01390028
KCLT 190152Z 09006KT 10SM FEW050 BKN250 15/03 A3035 RMK AO2 SLP278 T01500028
KCLT 190252Z 09007KT 10SM BKN049 BKN250 14/02 A3036 RMK AO2 SLP279 T01390022 51009